Time,TemperatureF,DewpointF,PressureIn,WindDirection,WindDirectionDegrees,WindSpeedMPH,WindSpeedGustMPH,Humidity,HourlyPrecipIn,Conditions,Clouds,dailyrainin,SoftwareType,DateUTC
2013-03-21 00:03:00,25.0,11.0,30.06,WNW,285,3.0,9.0,55,0.00,,,0.00,,2013-03-21 04:03:00,
2013-03-21 00:13:00,25.0,11.0,30.06,WNW,285,3.0,9.0,55,0.00,,,0.00,,2013-03-21 04:13:00,
2013-03-21 00:23:00,24.0,11.0,30.06,WNW,292,2.0,10.0,56,0.00,,,0.00,,2013-03-21 04:23:00,
2013-03-21 00:32:00,24.0,11.0,30.06,WNW,284,1.0,7.0,58,0.00,,,0.00,,2013-03-21 04:32:00,
2013-03-21 00:43:00,24.0,11.0,30.06,WNW,284,1.0,7.0,58,0.00,,,0.00,,2013-03-21 04:43:00,
2013-03-21 00:53:00,24.0,12.0,30.06,WNW,285,2.0,6.0,59,0.00,,,0.00,,2013-03-21 04:53:00,
2013-03-21 01:02:00,24.0,13.0,30.06,WNW,291,1.0,9.0,61,0.00,,,0.00,,2013-03-21 05:02:00,
2013-03-21 01:12:00,24.0,13.0,30.06,WNW,291,1.0,9.0,61,0.00,,,0.00,,2013-03-21 05:12:00,
2013-03-21 01:22:00,24.0,13.0,30.06,WNW,289,2.0,6.0,62,0.00,,,0.00,,2013-03-21 05:22:00,
2013-03-21 01:32:00,23.0,12.0,30.05,WNW,293,2.0,7.0,62,0.00,,,0.00,,2013-03-21 05:32:00,
2013-03-21 01:43:00,23.0,12.0,30.05,WNW,293,2.0,8.0,63,0.00,,,0.00,,2013-03-21 05:43:00,
2013-03-21 01:52:00,23.0,12.0,30.05,WNW,293,2.0,8.0,63,0.00,,,0.00,,2013-03-21 05:52:00,
2013-03-21 02:02:00,23.0,12.0,30.05,WNW,288,1.0,4.0,63,0.00,,,0.00,,2013-03-21 06:02:00,
2013-03-21 02:12:00,23.0,12.0,30.05,WNW,288,1.0,4.0,63,0.00,,,0.00,,2013-03-21 06:12:00,
2013-03-21 02:22:00,22.0,11.0,30.05,WNW,285,1.0,6.0,63,0.00,,,0.00,,2013-03-21 06:22:00,
2013-03-21 02:32:00,22.0,12.0,30.04,WNW,294,1.0,4.0,64,0.00,,,0.00,,2013-03-21 06:32:00,
2013-03-21 02:42:00,22.0,12.0,30.04,WNW,294,1.0,4.0,64,0.00,,,0.00,,2013-03-21 06:42:00,
2013-03-21 02:52:00,22.0,12.0,30.05,NNW,327,0.0,3.0,66,0.00,,,0.00,,2013-03-21 06:52:00,
2013-03-21 03:02:00,22.0,12.0,30.05,NW,309,1.0,6.0,66,0.00,,,0.00,,2013-03-21 07:02:00,
2013-03-21 03:12:00,22.0,12.0,30.05,NW,309,1.0,6.0,66,0.00,,,0.00,,2013-03-21 07:12:00,
2013-03-21 03:22:00,22.0,13.0,30.05,West,279,2.0,6.0,67,0.00,,,0.00,,2013-03-21 07:22:00,
2013-03-21 03:32:00,21.0,11.0,30.04,NW,321,2.0,8.0,65,0.00,,,0.00,,2013-03-21 07:32:00,
2013-03-21 03:42:00,21.0,11.0,30.04,NW,321,2.0,8.0,65,0.00,,,0.00,,2013-03-21 07:42:00,
2013-03-21 03:52:00,21.0,11.0,30.04,WNW,296,0.0,5.0,66,0.00,,,0.00,,2013-03-21 07:52:00,
2013-03-21 04:02:00,21.0,11.0,30.04,WNW,289,1.0,4.0,66,0.00,,,0.00,,2013-03-21 08:02:00,
2013-03-21 04:13:00,21.0,11.0,30.03,WNW,292,1.0,4.0,66,0.00,,,0.00,,2013-03-21 08:13:00,
2013-03-21 04:22:00,21.0,11.0,30.03,WNW,292,1.0,4.0,66,0.00,,,0.00,,2013-03-21 08:22:00,
2013-03-21 04:33:00,20.0,11.0,30.02,West,271,1.0,3.0,67,0.00,,,0.00,,2013-03-21 08:33:00,
2013-03-21 04:42:00,20.0,11.0,30.02,West,271,1.0,3.0,67,0.00,,,0.00,,2013-03-21 08:42:00,
2013-03-21 04:52:00,20.0,11.0,30.02,West,275,0.0,3.0,68,0.00,,,0.00,,2013-03-21 08:52:00,
2013-03-21 05:02:00,20.0,11.0,30.02,WNW,294,1.0,5.0,69,0.00,,,0.00,,2013-03-21 09:02:00,
2013-03-21 05:11:00,20.0,11.0,30.02,WNW,294,1.0,5.0,69,0.00,,,0.00,,2013-03-21 09:11:00,
2013-03-21 05:21:00,20.0,12.0,30.02,NW,314,0.0,4.0,70,0.00,,,0.00,,2013-03-21 09:21:00,
2013-03-21 05:33:00,19.0,11.0,30.02,NW,309,1.0,4.0,72,0.00,,,0.00,,2013-03-21 09:33:00,
2013-03-21 05:43:00,19.0,11.0,30.02,NW,309,1.0,4.0,72,0.00,,,0.00,,2013-03-21 09:43:00,
2013-03-21 05:53:00,19.0,12.0,30.02,WNW,302,1.0,5.0,73,0.00,,,0.00,,2013-03-21 09:53:00,
2013-03-21 06:02:00,19.0,12.0,30.02,WNW,287,0.0,3.0,73,0.00,,,0.00,,2013-03-21 10:02:00,
2013-03-21 06:12:00,19.0,12.0,30.02,WNW,287,0.0,3.0,73,0.00,,,0.00,,2013-03-21 10:12:00,
2013-03-21 06:22:00,19.0,12.0,30.02,WNW,287,0.0,3.0,75,0.00,,,0.00,,2013-03-21 10:22:00,
2013-03-21 06:33:00,19.0,13.0,30.02,WNW,301,0.0,3.0,76,0.00,,,0.00,,2013-03-21 10:33:00,
2013-03-21 06:42:00,19.0,13.0,30.02,WNW,301,0.0,3.0,76,0.00,,,0.00,,2013-03-21 10:42:00,
2013-03-21 06:53:00,19.0,13.0,30.02,WNW,301,0.0,3.0,77,0.00,,,0.00,,2013-03-21 10:53:00,
2013-03-21 07:02:00,18.0,12.0,30.03,WNW,290,0.0,4.0,78,0.00,,,0.00,,2013-03-21 11:02:00,
2013-03-21 07:12:00,18.0,12.0,30.03,WNW,290,0.0,4.0,78,0.00,,,0.00,,2013-03-21 11:12:00,
2013-03-21 07:22:00,18.0,13.0,30.03,WNW,290,0.0,3.0,79,0.00,,,0.00,,2013-03-21 11:22:00,
2013-03-21 07:33:00,18.0,13.0,30.03,WNW,300,0.0,3.0,82,0.00,,,0.00,,2013-03-21 11:33:00,
2013-03-21 07:42:00,18.0,13.0,30.03,WNW,300,0.0,3.0,82,0.00,,,0.00,,2013-03-21 11:42:00,
2013-03-21 07:53:00,18.0,15.0,30.03,WNW,288,0.0,2.0,87,0.00,,,0.00,,2013-03-21 11:53:00,
2013-03-21 08:02:00,18.0,15.0,30.03,NW,308,0.0,4.0,88,0.00,,,0.00,,2013-03-21 12:02:00,
2013-03-21 08:12:00,18.0,15.0,30.03,NW,308,0.0,4.0,88,0.00,,,0.00,,2013-03-21 12:12:00,
2013-03-21 08:22:00,18.0,15.0,30.05,NW,304,1.0,6.0,87,0.00,,,0.00,,2013-03-21 12:22:00,
2013-03-21 08:32:00,19.0,15.0,30.05,WNW,302,0.0,4.0,84,0.00,,,0.00,,2013-03-21 12:32:00,
2013-03-21 08:42:00,19.0,15.0,30.05,WNW,302,0.0,4.0,84,0.00,,,0.00,,2013-03-21 12:42:00,
2013-03-21 08:53:00,19.0,14.0,30.06,NW,321,1.0,6.0,82,0.00,,,0.00,,2013-03-21 12:53:00,
2013-03-21 09:02:00,19.0,14.0,30.06,NW,313,2.0,6.0,81,0.00,,,0.00,,2013-03-21 13:02:00,
2013-03-21 09:12:00,19.0,14.0,30.06,NW,313,2.0,6.0,81,0.00,,,0.00,,2013-03-21 13:12:00,
2013-03-21 09:22:00,19.0,14.0,30.07,NW,318,1.0,4.0,80,0.00,,,0.00,,2013-03-21 13:22:00,
2013-03-21 09:32:00,19.0,14.0,30.08,NW,317,1.0,5.0,80,0.00,,,0.00,,2013-03-21 13:32:00,
2013-03-21 09:42:00,19.0,14.0,30.08,NW,317,1.0,5.0,80,0.00,,,0.00,,2013-03-21 13:42:00,
2013-03-21 09:52:00,19.0,14.0,30.07,NW,315,1.0,5.0,79,0.00,,,0.00,,2013-03-21 13:52:00,
2013-03-21 10:02:00,19.0,14.0,30.08,NW,318,1.0,5.0,80,0.00,,,0.00,,2013-03-21 14:02:00,
2013-03-21 10:12:00,19.0,15.0,30.08,NW,314,1.0,6.0,84,0.00,,,0.00,,2013-03-21 14:12:00,
2013-03-21 10:22:00,19.0,15.0,30.08,NW,314,1.0,6.0,84,0.00,,,0.00,,2013-03-21 14:22:00,
2013-03-21 10:32:00,20.0,15.0,30.09,WNW,303,2.0,6.0,82,0.00,,,0.00,,2013-03-21 14:32:00,
2013-03-21 10:42:00,20.0,15.0,30.09,WNW,303,2.0,6.0,82,0.00,,,0.00,,2013-03-21 14:42:00,
2013-03-21 10:52:00,20.0,15.0,30.09,NW,311,0.0,3.0,79,0.00,,,0.00,,2013-03-21 14:52:00,
2013-03-21 11:03:00,22.0,14.0,30.09,NNW,336,0.0,4.0,72,0.00,,,0.00,,2013-03-21 15:03:00,
2013-03-21 11:12:00,22.0,13.0,30.08,NW,309,0.0,4.0,67,0.00,,,0.00,,2013-03-21 15:12:00,
2013-03-21 11:22:00,22.0,13.0,30.08,NW,309,0.0,4.0,67,0.00,,,0.00,,2013-03-21 15:22:00,
2013-03-21 11:33:00,23.0,13.0,30.09,West,279,1.0,4.0,65,0.00,,,0.00,,2013-03-21 15:33:00,
2013-03-21 11:42:00,23.0,13.0,30.09,West,279,1.0,4.0,65,0.00,,,0.00,,2013-03-21 15:42:00,
2013-03-21 11:53:00,23.0,13.0,30.09,West,279,1.0,4.0,65,0.00,,,0.00,,2013-03-21 15:53:00,
2013-03-21 12:03:00,23.0,12.0,30.10,NE,38,0.0,4.0,61,0.00,,,0.00,,2013-03-21 16:03:00,
2013-03-21 12:12:00,23.0,12.0,30.10,NE,38,0.0,4.0,61,0.00,,,0.00,,2013-03-21 16:12:00,
2013-03-21 12:23:00,24.0,13.0,30.10,WSW,255,3.0,7.0,62,0.00,,,0.00,,2013-03-21 16:23:00,
2013-03-21 12:33:00,25.0,13.0,30.10,NNW,337,0.0,3.0,61,0.00,,,0.00,,2013-03-21 16:33:00,
2013-03-21 12:42:00,25.0,13.0,30.10,NNW,337,0.0,3.0,61,0.00,,,0.00,,2013-03-21 16:42:00,
2013-03-21 12:53:00,26.0,14.0,30.09,NNE,26,0.0,4.0,59,0.00,,,0.00,,2013-03-21 16:53:00,
2013-03-21 13:02:00,25.0,12.0,30.09,West,281,1.0,4.0,57,0.00,,,0.00,,2013-03-21 17:02:00,
2013-03-21 13:12:00,25.0,12.0,30.09,West,281,1.0,4.0,57,0.00,,,0.00,,2013-03-21 17:12:00,
2013-03-21 13:23:00,27.0,13.0,30.09,NNW,329,0.0,4.0,56,0.00,,,0.00,,2013-03-21 17:23:00,
2013-03-21 13:32:00,27.0,12.0,30.09,NW,309,2.0,7.0,53,0.00,,,0.00,,2013-03-21 17:32:00,
2013-03-21 13:42:00,27.0,12.0,30.09,NW,309,2.0,7.0,53,0.00,,,0.00,,2013-03-21 17:42:00,
2013-03-21 13:53:00,28.0,14.0,30.09,WSW,258,0.0,4.0,56,0.00,,,0.00,,2013-03-21 17:53:00,
2013-03-21 14:02:00,28.0,12.0,30.09,NW,310,1.0,5.0,50,0.00,,,0.00,,2013-03-21 18:02:00,
2013-03-21 14:12:00,28.0,12.0,30.09,NW,310,1.0,5.0,50,0.00,,,0.00,,2013-03-21 18:12:00,
2013-03-21 14:22:00,29.0,14.0,30.08,South,176,1.0,6.0,53,0.00,,,0.00,,2013-03-21 18:22:00,
2013-03-21 14:32:00,30.0,13.0,30.08,WNW,298,1.0,6.0,49,0.00,,,0.00,,2013-03-21 18:32:00,
2013-03-21 14:42:00,30.0,14.0,30.08,West,262,0.0,4.0,51,0.00,,,0.00,,2013-03-21 18:42:00,
2013-03-21 14:52:00,30.0,14.0,30.08,West,262,0.0,4.0,51,0.00,,,0.00,,2013-03-21 18:52:00,
2013-03-21 15:02:00,30.0,12.0,30.07,North,0,2.0,6.0,47,0.00,,,0.00,,2013-03-21 19:02:00,
2013-03-21 15:12:00,30.0,12.0,30.07,North,0,2.0,6.0,47,0.00,,,0.00,,2013-03-21 19:12:00,
2013-03-21 15:22:00,32.0,14.0,30.07,South,178,0.0,5.0,47,0.00,,,0.00,,2013-03-21 19:22:00,
2013-03-21 15:32:00,33.0,13.0,30.06,WSW,241,2.0,7.0,43,0.00,,,0.00,,2013-03-21 19:32:00,
2013-03-21 15:42:00,33.0,13.0,30.06,WSW,241,2.0,7.0,43,0.00,,,0.00,,2013-03-21 19:42:00,
2013-03-21 15:53:00,32.0,13.0,30.06,ENE,69,2.0,7.0,45,0.00,,,0.00,,2013-03-21 19:53:00,
2013-03-21 16:02:00,32.0,13.0,30.05,North,359,0.0,5.0,44,0.00,,,0.00,,2013-03-21 20:02:00,
2013-03-21 16:12:00,32.0,13.0,30.05,North,359,0.0,5.0,44,0.00,,,0.00,,2013-03-21 20:12:00,
2013-03-21 16:22:00,33.0,13.0,30.05,NNW,331,1.0,6.0,43,0.00,,,0.00,,2013-03-21 20:22:00,
2013-03-21 16:33:00,34.0,14.0,30.04,SW,234,1.0,5.0,44,0.00,,,0.00,,2013-03-21 20:33:00,
2013-03-21 16:42:00,34.0,14.0,30.04,SW,234,1.0,5.0,44,0.00,,,0.00,,2013-03-21 20:42:00,
2013-03-21 16:53:00,34.0,14.0,30.04,SSW,205,0.0,5.0,44,0.00,,,0.00,,2013-03-21 20:53:00,
2013-03-21 17:02:00,34.0,14.0,30.04,NNW,337,0.0,3.0,43,0.00,,,0.00,,2013-03-21 21:02:00,
2013-03-21 17:12:00,34.0,14.0,30.04,NNW,337,0.0,3.0,43,0.00,,,0.00,,2013-03-21 21:12:00,
2013-03-21 17:22:00,34.0,14.0,30.03,WNW,283,1.0,5.0,43,0.00,,,0.00,,2013-03-21 21:22:00,
2013-03-21 17:32:00,35.0,15.0,30.03,WNW,289,0.0,3.0,44,0.00,,,0.00,,2013-03-21 21:32:00,
2013-03-21 17:43:00,35.0,15.0,30.03,WNW,289,0.0,3.0,44,0.00,,,0.00,,2013-03-21 21:43:00,
2013-03-21 17:53:00,35.0,14.0,30.03,ESE,120,0.0,6.0,42,0.00,,,0.00,,2013-03-21 21:53:00,
2013-03-21 18:02:00,36.0,15.0,30.03,East,88,0.0,2.0,41,0.00,,,0.00,,2013-03-21 22:02:00,
2013-03-21 18:13:00,36.0,15.0,30.03,East,88,0.0,2.0,41,0.00,,,0.00,,2013-03-21 22:13:00,
2013-03-21 18:23:00,35.0,14.0,30.03,NW,313,0.0,2.0,42,0.00,,,0.00,,2013-03-21 22:23:00,
2013-03-21 18:33:00,35.0,14.0,30.03,SW,227,2.0,7.0,42,0.00,,,0.00,,2013-03-21 22:33:00,
2013-03-21 18:42:00,35.0,14.0,30.03,SW,227,2.0,7.0,42,0.00,,,0.00,,2013-03-21 22:42:00,
2013-03-21 18:52:00,34.0,13.0,30.03,WSW,244,0.0,4.0,42,0.00,,,0.00,,2013-03-21 22:52:00,
2013-03-21 19:02:00,35.0,15.0,30.02,ENE,65,0.0,2.0,43,0.00,,,0.00,,2013-03-21 23:02:00,
2013-03-21 19:12:00,35.0,15.0,30.02,ENE,65,0.0,2.0,43,0.00,,,0.00,,2013-03-21 23:12:00,
2013-03-21 19:22:00,35.0,15.0,30.02,East,87,0.0,2.0,43,0.00,,,0.00,,2013-03-21 23:22:00,
2013-03-21 19:32:00,34.0,14.0,30.03,East,87,0.0,2.0,44,0.00,,,0.00,,2013-03-21 23:32:00,
2013-03-21 19:42:00,34.0,14.0,30.03,East,87,0.0,2.0,44,0.00,,,0.00,,2013-03-21 23:42:00,
2013-03-21 19:53:00,33.0,14.0,30.03,East,87,0.0,1.0,45,0.00,,,0.00,,2013-03-21 23:53:00,
2013-03-21 20:02:00,33.0,14.0,30.03,East,87,0.0,0.0,45,0.00,,,0.00,,2013-03-22 00:02:00,
2013-03-21 20:12:00,33.0,14.0,30.03,East,87,0.0,0.0,45,0.00,,,0.00,,2013-03-22 00:12:00,
2013-03-21 20:22:00,32.0,14.0,30.04,East,87,0.0,0.0,46,0.00,,,0.00,,2013-03-22 00:22:00,
2013-03-21 20:32:00,31.0,14.0,30.05,East,87,0.0,1.0,49,0.00,,,0.00,,2013-03-22 00:32:00,
2013-03-21 20:42:00,31.0,14.0,30.05,East,87,0.0,1.0,49,0.00,,,0.00,,2013-03-22 00:42:00,
2013-03-21 20:52:00,30.0,14.0,30.05,East,87,0.0,2.0,51,0.00,,,0.00,,2013-03-22 00:52:00,
2013-03-21 21:02:00,30.0,15.0,30.05,East,87,0.0,1.0,54,0.00,,,0.00,,2013-03-22 01:02:00,
2013-03-21 21:12:00,30.0,15.0,30.05,East,87,0.0,1.0,54,0.00,,,0.00,,2013-03-22 01:12:00,
2013-03-21 21:22:00,30.0,15.0,30.06,East,87,0.0,1.0,53,0.00,,,0.00,,2013-03-22 01:22:00,
2013-03-21 21:32:00,29.0,14.0,30.06,East,87,0.0,1.0,53,0.00,,,0.00,,2013-03-22 01:32:00,
2013-03-21 21:42:00,29.0,14.0,30.06,East,87,0.0,1.0,53,0.00,,,0.00,,2013-03-22 01:42:00,
2013-03-21 21:53:00,29.0,16.0,30.06,East,87,0.0,0.0,57,0.00,,,0.00,,2013-03-22 01:53:00,
2013-03-21 22:02:00,28.0,14.0,30.07,East,87,0.0,0.0,56,0.00,,,0.00,,2013-03-22 02:02:00,
2013-03-21 22:12:00,28.0,14.0,30.07,East,87,0.0,0.0,56,0.00,,,0.00,,2013-03-22 02:12:00,
2013-03-21 22:22:00,28.0,15.0,30.07,East,87,0.0,0.0,58,0.00,,,0.00,,2013-03-22 02:22:00,
2013-03-21 22:32:00,28.0,15.0,30.07,East,87,0.0,0.0,57,0.00,,,0.00,,2013-03-22 02:32:00,
2013-03-21 22:42:00,28.0,15.0,30.07,East,87,0.0,0.0,57,0.00,,,0.00,,2013-03-22 02:42:00,
2013-03-21 22:52:00,28.0,15.0,30.07,East,87,0.0,1.0,58,0.00,,,0.00,,2013-03-22 02:52:00,
2013-03-21 23:02:00,28.0,14.0,30.07,East,87,0.0,0.0,56,0.00,,,0.00,,2013-03-22 03:02:00,
2013-03-21 23:12:00,28.0,14.0,30.07,East,87,0.0,0.0,56,0.00,,,0.00,,2013-03-22 03:12:00,
2013-03-21 23:22:00,27.0,14.0,30.07,East,87,0.0,1.0,57,0.00,,,0.00,,2013-03-22 03:22:00,
2013-03-21 23:33:00,27.0,14.0,30.08,East,87,0.0,0.0,58,0.00,,,0.00,,2013-03-22 03:33:00,
2013-03-21 23:43:00,27.0,14.0,30.08,East,87,0.0,0.0,58,0.00,,,0.00,,2013-03-22 03:43:00,
2013-03-21 23:53:00,27.0,14.0,30.08,East,87,0.0,0.0,57,0.00,,,0.00,,2013-03-22 03:53:00,